Jump to content
Les Forums d'Infoclimat

Ce tchat, hébergé sur une plateforme indépendante d'Infoclimat, est géré et modéré par une équipe autonome, sans lien avec l'Association.
Un compte séparé du site et du forum d'Infoclimat est nécessaire pour s'y connecter.

Cyclone intense Gonu (Oman et Iran)


Recommended Posts

Posted
Varces-Allières-et-Risset

Il est tombé 133,0 mm de pluie à Qalhat (Oman) le 05/06/2007 entre 0h et 24h UTC.

Link to post
Share on other sites

Quelques nouvelles du site météo-world :

"Message de Christine envoyé à 19h45:

Il est 19h30 heure française, je viens de joindre mon fils par téléphone, il travaille pour la mission économique française à Mascate.

Après une montée des eaux rapide et très importante qui a obligé ceux qui n'habitaient pas en hauteur à fuir (plus ou moins à la nage) chez des amis, une décrue s'est amorcée, d'au moins 1 m. Ce qui a permis à certains de retourner dans des logements sinistrés afin de récupérer quelques effets et de la nourriture. Par contre, il n'y a plus d'électricité. Il pleut toujours mais le vent est faible maintenant. Les liaisons téléphoniques sont très difficiles voire impossibles.

Bon courage à tous.

Gonu a faibli en entrant dans le Golfe de Oman. Il ne devrait pas tarder à devenir simple tempête tropicale juste avant de toucher les terres Iraniennes au niveau de Ras Ye Hormos.

Voici les caractéristiques de Gonu relevées à 17h00:

Cyclone de catégorie 1/5 sur l’échelle de Saffir Simpson

Vents moyens : 129 km/h

Vents en rafales : 157 km/h près du centre

Pression : 972 hpa

Situé à environ 92 km au Nord-Est de Muscat (Oman)

Direction : Nord à la vitesse moyenne de 14 km/h"

Link to post
Share on other sites
Posted
St Genis les Ollières (69), Aeroport St Exupery (69)

Gros déluge à Mascate également, si on en juge par les derniers METARs:

OOMS 061700Z 25024G35KT 230V290 0400 TSRA SCT008 BKN025 FEW030 OVC080 24/23 Q0997 TEMPO 0200M +TSSH OOMS 061600Z 27022G38KT 250V310 0300 +SHRA SCT008 BKN025 FEW030CB OVC080 24/24 Q0996 TEMPO 100M +TSSH   OOMS 061500Z 30017KT 260V330 9999 FEW008 BKN025 FEW030CB OVC080 23/23 Q0996 TEMPO 0100 +TSSHOOMS 061358Z 27025G39KT 240V300 0300 +TSRA SCT008 BKN025 FEW030CB BKN080 23/23 Q0994 TEMPO 0150 M +TSSH OOMS 061300Z 29022G38KT 250V320 0300 +TSRA SCT008 BKN025 FEW030CB OVC080 24/24 Q0993 TEMPO 0150M +TSSH  OOMS 06 BD.GAEAR GN 3R ILOOMS 061200Z 28026G37KT 250V310 0300 +TSRA SCT008 BKN025 OVC080 23/23 Q0993 TEMPO 0150M +TSSH   OOMS 061100Z 29024G45KT 260V320 0500 +TSRA SCT008 BKN025 FEW030CB OVC080 24/23 Q0994 TEMPO 0200 +TSSH   OOMS 061100Z 29024G45KT 260V320 5000 +TSRA SCT008 BKN025 FEW030CB OVC080 24/23 Q0994 TEMPO 0200 +TSSHOOMS 060900Z 34021G42KT 300V020 0600 TSRA SCT008 BKN025 FEW030CB OVC080 24/23 Q0996 TEMPO 200 +TSSH OOMS 060800Z 34018G30KT 300V010 0600 -TSRA SCT008 BKN025 FEW030CB OVC080 25/25 Q0996 TEMPO 0400 +TSSH   OOMS 060700Z 35018G32KT 300V020 0700 TSRA SCT008 BKN025 FEW030CB OVC090 25/24 Q0997 TEMPO 0400 +TSSHOOMS 060600Z 36017G33KT 310V050 1000 +TSRA SCT008 BKN025 FEW030CB OVC080 25/25 Q0998 TEMPO 0500M +TSSH  OOMS 060500Z 01015KT 330V040 1500 TSRA SCT010 BKN025 FEW030CB OVC090 25/25 Q0998 TEMPO 1000 +TSRA

A noter qu'avec seulement 23°c on doit se situer près des records de froids.

Normales (1961-90) de l'aéroport de Mascate Seeb: tn 30.6°c / tx 40.4°c / RR 0.9mm

Link to post
Share on other sites
Posted
Merry la vallée 280m d'alt.

dans les JT de TF1 et france 2 ils ont montré quelques images des degars du cyclone...

A voir sur leur site

Link to post
Share on other sites

Un début de bilan :

Au moins 25 morts et 26 disparus c’est le nouveau bilan provisoire communiqué par les autorités à Oman.

La moitié des morts sont mort noyés, tandis que la police et les hélicoptères recherchent les personnes disparues.

En Iran le bilan est toujours de 3 morts pour le moment

Source : météo-world
Link to post
Share on other sites
Posted
Nîmes(30) - Lattes(34)

Sa commence à devenir interessant tout ce qui se passe ces dernières années côté ouragans. Entre le record de cyclones en atlantique nord en 2005 avec 3 cyclones de catégorie 5(Rita, Katrina et Wilma dont les 2 derniers sont entrés dans le classement des 5 cyclones ayant la pression la plus basse jamais enregistré dans cette partie du monde avec près de 880hpa pour Wilma et des vents à 360km/h). Il y a aussi toujours en 2005, le cyclone Vince, très petit de diamètre mais en catégorie 1 sur les Iles Canaries puis en atteignant la péninsule ibérique un peu plus tard et enfin un dernier, je ne connait pas sont nom mais je crois que c'était en 2002, un cyclone assez fort est passé au large des cotes sud-est du Brésil.

Et maintenant c'est celui la.

Je pense surement qu'il y a du réchauffement planétaire dans l'air.

Link to post
Share on other sites

Ce qui est le plus inquiétant c'est l'évolution de la rapidité des creusements en 24 h ou moins donc littéralement imprévisible, et donc d'autant plus dangereux .

Link to post
Share on other sites

Je vais finir par croire au projet HAARP moi si ca continue, comme par hasard en pleine tension entre les etats unis et la Russie au sujet de l'Iran default_sorcerer.gifdefault_clover.gif

Maudits Américain default_biggrin.png/emoticons/biggrin@2x.png 2x" width="20" height="20">

Link to post
Share on other sites

Je vais finir par croire au projet HAARP moi si ca continue, comme par hasard en pleine tension entre les etats unis et la Russie au sujet de l'Iran default_wink.png/emoticons/wink@2x.png 2x" width="20" height="20">default_tongue.png/emoticons/tongue@2x.png 2x" width="20" height="20">

Maudits Américain default_biggrin.png/emoticons/biggrin@2x.png 2x" width="20" height="20">

heu... faut arrêter de se faire des films là.influencer le climat de cette manière nécessite des énergies colossales...!
Link to post
Share on other sites

heu... faut arrêter de se faire des films là.

influencer le climat de cette manière nécessite des énergies colossales...!

Non, il parait que les américains ont placé un peu partout de gros ventilateurs pour pousser ce cyclone vers l'Iran mais tout ça "ce n'est que politique mon petit mr". default_biggrin.png/emoticons/biggrin@2x.png 2x" width="20" height="20">
Link to post
Share on other sites

Bonjour à vous tous j'ai trouvé une vidéo interressante sur le cyclone GONU, regardez c'est très bien fait je vous donne le lien en espérant que ça vous plaira. Bonne journée à vous tous! (c'est un peu long pour le téléchargement mais ça vaut le coup d'être vu)

http://vdo2wxsatpicture.free.fr/vdogonu.htm

default_flowers.gifdefault_flowers.gifdefault_biggrin.png/emoticons/biggrin@2x.png 2x" width="20" height="20">

Link to post
Share on other sites
Posted
Varces-Allières-et-Risset

Bonjour à vous tous j'ai trouvé une vidéo interressante sur le cyclone GONU, regardez c'est très bien fait je vous donne le lien en espérant que ça vous plaira. Bonne journée à vous tous! (c'est un peu long pour le téléchargement mais ça vaut le coup d'être vu)

http://vdo2wxsatpicture.free.fr/vdogonu.htm

default_sleeping.gifdefault_huh.pngdefault_happy.png/emoticons/happy@2x.png 2x" width="20" height="20">

Montage vidéo de 85 Mo !Vidéo intéressante même si l'auteur est sévèrement fâché avec l'orthographe ! default_dry.png
Link to post
Share on other sites

Create an account or sign in to comment

You need to be a member in order to leave a comment

Create an account

Sign up for a new account in our community. It's easy!

Register a new account

Sign in

Already have an account? Sign in here.

Sign In Now
  • Recently Browsing   0 members

    No registered users viewing this page.

×
×
  • Create New...